sensor_id;sensor_type;location;lat;lon;timestamp;P1;durP1;ratioP1;P2;durP2;ratioP2
13012;SDS011;22580;57.670;12.006;2023-03-14T00:00:59;4.70;;;1.83;;
13012;SDS011;22580;57.670;12.006;2023-03-14T00:03:28;8.00;;;2.63;;
13012;SDS011;22580;57.670;12.006;2023-03-14T00:05:56;4.40;;;1.60;;
13012;SDS011;22580;57.670;12.006;2023-03-14T00:08:41;5.90;;;2.37;;
13012;SDS011;22580;57.670;12.006;2023-03-14T00:11:27;3.50;;;1.60;;
13012;SDS011;22580;57.670;12.006;2023-03-14T00:13:59;3.87;;;1.80;;
13012;SDS011;22580;57.670;12.006;2023-03-14T00:16:28;3.70;;;1.60;;
13012;SDS011;22580;57.670;12.006;2023-03-14T00:18:55;3.57;;;1.40;;
13012;SDS011;22580;57.670;12.006;2023-03-14T00:21:26;3.20;;;1.50;;
13012;SDS011;22580;57.670;12.006;2023-03-14T00:23:59;5.50;;;2.00;;
13012;SDS011;22580;57.670;12.006;2023-03-14T00:26:26;4.60;;;1.80;;
13012;SDS011;22580;57.670;12.006;2023-03-14T00:28:55;3.43;;;1.40;;
13012;SDS011;22580;57.670;12.006;2023-03-14T00:31:30;1.87;;;1.00;;
13012;SDS011;22580;57.670;12.006;2023-03-14T00:34:06;4.53;;;1.40;;
13012;SDS011;22580;57.670;12.006;2023-03-14T00:36:37;3.90;;;1.30;;
13012;SDS011;22580;57.670;12.006;2023-03-14T00:39:10;1.47;;;1.10;;
13012;SDS011;22580;57.670;12.006;2023-03-14T00:41:49;3.97;;;1.20;;
13012;SDS011;22580;57.670;12.006;2023-03-14T00:44:17;2.00;;;1.03;;
13012;SDS011;22580;57.670;12.006;2023-03-14T00:46:49;1.37;;;1.10;;
13012;SDS011;22580;57.670;12.006;2023-03-14T00:49:18;3.90;;;1.50;;
13012;SDS011;22580;57.670;12.006;2023-03-14T00:51:47;5.27;;;1.90;;
13012;SDS011;22580;57.670;12.006;2023-03-14T00:54:15;2.40;;;1.50;;
13012;SDS011;22580;57.670;12.006;2023-03-14T00:56:46;4.37;;;1.40;;
13012;SDS011;22580;57.670;12.006;2023-03-14T00:59:15;4.77;;;1.63;;
13012;SDS011;22580;57.670;12.006;2023-03-14T01:01:48;2.60;;;1.17;;
13012;SDS011;22580;57.670;12.006;2023-03-14T01:04:18;2.50;;;1.20;;
13012;SDS011;22580;57.670;12.006;2023-03-14T01:06:46;1.90;;;1.10;;
13012;SDS011;22580;57.670;12.006;2023-03-14T01:09:16;3.60;;;1.23;;
13012;SDS011;22580;57.670;12.006;2023-03-14T01:11:44;2.67;;;1.10;;
13012;SDS011;22580;57.670;12.006;2023-03-14T01:14:11;2.27;;;1.10;;
13012;SDS011;22580;57.670;12.006;2023-03-14T01:16:39;4.23;;;1.43;;
13012;SDS011;22580;57.670;12.006;2023-03-14T01:19:11;4.27;;;1.20;;
13012;SDS011;22580;57.670;12.006;2023-03-14T01:21:48;3.20;;;1.27;;
13012;SDS011;22580;57.670;12.006;2023-03-14T01:24:16;3.17;;;1.10;;
13012;SDS011;22580;57.670;12.006;2023-03-14T01:26:49;1.87;;;0.90;;
13012;SDS011;22580;57.670;12.006;2023-03-14T01:29:16;2.17;;;1.00;;
13012;SDS011;22580;57.670;12.006;2023-03-14T01:31:48;2.40;;;1.00;;
13012;SDS011;22580;57.670;12.006;2023-03-14T01:34:18;2.57;;;1.10;;
13012;SDS011;22580;57.670;12.006;2023-03-14T01:36:47;3.63;;;1.20;;
13012;SDS011;22580;57.670;12.006;2023-03-14T01:39:17;0.97;;;0.50;;
13012;SDS011;22580;57.670;12.006;2023-03-14T01:41:49;1.23;;;0.60;;
13012;SDS011;22580;57.670;12.006;2023-03-14T01:44:18;1.60;;;0.60;;
13012;SDS011;22580;57.670;12.006;2023-03-14T01:46:45;1.33;;;0.60;;
13012;SDS011;22580;57.670;12.006;2023-03-14T01:49:19;3.63;;;1.00;;
13012;SDS011;22580;57.670;12.006;2023-03-14T01:51:58;2.93;;;1.47;;
13012;SDS011;22580;57.670;12.006;2023-03-14T01:54:37;3.10;;;1.13;;
13012;SDS011;22580;57.670;12.006;2023-03-14T01:57:07;5.17;;;1.70;;
13012;SDS011;22580;57.670;12.006;2023-03-14T01:59:39;3.37;;;1.43;;
13012;SDS011;22580;57.670;12.006;2023-03-14T02:02:21;2.33;;;1.13;;
13012;SDS011;22580;57.670;12.006;2023-03-14T02:04:55;2.33;;;1.07;;
13012;SDS011;22580;57.670;12.006;2023-03-14T02:07:28;4.17;;;1.13;;
13012;SDS011;22580;57.670;12.006;2023-03-14T02:10:07;3.63;;;1.40;;
13012;SDS011;22580;57.670;12.006;2023-03-14T02:12:37;3.43;;;1.23;;
13012;SDS011;22580;57.670;12.006;2023-03-14T02:15:06;1.57;;;0.80;;
13012;SDS011;22580;57.670;12.006;2023-03-14T02:17:34;2.63;;;0.90;;
13012;SDS011;22580;57.670;12.006;2023-03-14T02:20:22;2.80;;;1.00;;
13012;SDS011;22580;57.670;12.006;2023-03-14T02:23:06;2.23;;;0.90;;
13012;SDS011;22580;57.670;12.006;2023-03-14T02:25:39;2.13;;;1.23;;
13012;SDS011;22580;57.670;12.006;2023-03-14T02:28:16;3.97;;;1.10;;
13012;SDS011;22580;57.670;12.006;2023-03-14T02:30:46;3.83;;;1.20;;
13012;SDS011;22580;57.670;12.006;2023-03-14T02:33:17;1.97;;;0.70;;
13012;SDS011;22580;57.670;12.006;2023-03-14T02:35:50;2.20;;;1.00;;
13012;SDS011;22580;57.670;12.006;2023-03-14T02:38:26;2.30;;;1.23;;
13012;SDS011;22580;57.670;12.006;2023-03-14T02:41:03;2.40;;;1.00;;
13012;SDS011;22580;57.670;12.006;2023-03-14T02:43:39;7.80;;;1.90;;
13012;SDS011;22580;57.670;12.006;2023-03-14T02:46:09;2.80;;;1.13;;
13012;SDS011;22580;57.670;12.006;2023-03-14T02:48:49;2.30;;;0.87;;
13012;SDS011;22580;57.670;12.006;2023-03-14T02:51:29;4.40;;;1.40;;
13012;SDS011;22580;57.670;12.006;2023-03-14T02:53:58;5.33;;;1.30;;
13012;SDS011;22580;57.670;12.006;2023-03-14T02:56:27;3.93;;;1.13;;
13012;SDS011;22580;57.670;12.006;2023-03-14T02:58:57;6.47;;;1.30;;
13012;SDS011;22580;57.670;12.006;2023-03-14T03:01:25;1.53;;;0.93;;
13012;SDS011;22580;57.670;12.006;2023-03-14T03:04:00;1.53;;;0.60;;
13012;SDS011;22580;57.670;12.006;2023-03-14T03:06:38;1.73;;;0.93;;
13012;SDS011;22580;57.670;12.006;2023-03-14T03:09:08;1.53;;;0.67;;
13012;SDS011;22580;57.670;12.006;2023-03-14T03:11:35;1.40;;;0.40;;
13012;SDS011;22580;57.670;12.006;2023-03-14T03:14:14;2.73;;;1.20;;
13012;SDS011;22580;57.670;12.006;2023-03-14T03:16:46;1.30;;;0.83;;
13012;SDS011;22580;57.670;12.006;2023-03-14T03:19:21;1.83;;;0.80;;
13012;SDS011;22580;57.670;12.006;2023-03-14T03:21:57;1.33;;;0.60;;
13012;SDS011;22580;57.670;12.006;2023-03-14T03:24:24;1.67;;;0.80;;
13012;SDS011;22580;57.670;12.006;2023-03-14T03:26:56;0.97;;;0.37;;
13012;SDS011;22580;57.670;12.006;2023-03-14T03:29:28;1.00;;;0.50;;
13012;SDS011;22580;57.670;12.006;2023-03-14T03:31:55;1.03;;;0.60;;
13012;SDS011;22580;57.670;12.006;2023-03-14T03:34:29;0.63;;;0.60;;
13012;SDS011;22580;57.670;12.006;2023-03-14T03:36:58;0.87;;;0.47;;
13012;SDS011;22580;57.670;12.006;2023-03-14T03:39:27;2.00;;;0.70;;
13012;SDS011;22580;57.670;12.006;2023-03-14T03:41:54;2.30;;;0.90;;
13012;SDS011;22580;57.670;12.006;2023-03-14T03:44:26;0.50;;;0.47;;
13012;SDS011;22580;57.670;12.006;2023-03-14T03:46:59;1.37;;;0.73;;
13012;SDS011;22580;57.670;12.006;2023-03-14T03:49:28;1.77;;;0.63;;
13012;SDS011;22580;57.670;12.006;2023-03-14T03:51:55;2.20;;;0.90;;
13012;SDS011;22580;57.670;12.006;2023-03-14T03:54:22;1.60;;;0.80;;
13012;SDS011;22580;57.670;12.006;2023-03-14T03:56:59;1.77;;;0.70;;
13012;SDS011;22580;57.670;12.006;2023-03-14T03:59:30;1.33;;;0.80;;
13012;SDS011;22580;57.670;12.006;2023-03-14T04:01:57;1.67;;;0.60;;
13012;SDS011;22580;57.670;12.006;2023-03-14T04:04:35;2.00;;;0.53;;
13012;SDS011;22580;57.670;12.006;2023-03-14T04:07:02;0.73;;;0.50;;
13012;SDS011;22580;57.670;12.006;2023-03-14T04:09:38;0.40;;;0.40;;
13012;SDS011;22580;57.670;12.006;2023-03-14T04:12:07;0.73;;;0.40;;
13012;SDS011;22580;57.670;12.006;2023-03-14T04:14:37;1.00;;;0.40;;
13012;SDS011;22580;57.670;12.006;2023-03-14T04:17:08;0.53;;;0.40;;
13012;SDS011;22580;57.670;12.006;2023-03-14T04:19:35;0.50;;;0.40;;
13012;SDS011;22580;57.670;12.006;2023-03-14T04:22:07;0.83;;;0.50;;
13012;SDS011;22580;57.670;12.006;2023-03-14T04:24:38;1.23;;;0.57;;
13012;SDS011;22580;57.670;12.006;2023-03-14T04:27:07;1.03;;;0.50;;
13012;SDS011;22580;57.670;12.006;2023-03-14T04:29:38;0.90;;;0.63;;
13012;SDS011;22580;57.670;12.006;2023-03-14T04:32:05;0.93;;;0.40;;
13012;SDS011;22580;57.670;12.006;2023-03-14T04:34:40;0.93;;;0.50;;
13012;SDS011;22580;57.670;12.006;2023-03-14T04:37:11;1.63;;;0.67;;
13012;SDS011;22580;57.670;12.006;2023-03-14T04:39:46;0.37;;;0.33;;
13012;SDS011;22580;57.670;12.006;2023-03-14T04:42:13;0.63;;;0.30;;
13012;SDS011;22580;57.670;12.006;2023-03-14T04:44:47;1.13;;;0.40;;
13012;SDS011;22580;57.670;12.006;2023-03-14T04:47:15;1.97;;;0.70;;
13012;SDS011;22580;57.670;12.006;2023-03-14T04:49:45;1.53;;;0.70;;
13012;SDS011;22580;57.670;12.006;2023-03-14T04:52:16;2.83;;;1.10;;
13012;SDS011;22580;57.670;12.006;2023-03-14T04:54:45;2.93;;;1.00;;
13012;SDS011;22580;57.670;12.006;2023-03-14T04:57:18;2.40;;;1.13;;
13012;SDS011;22580;57.670;12.006;2023-03-14T04:59:58;2.77;;;0.90;;
13012;SDS011;22580;57.670;12.006;2023-03-14T05:02:31;0.83;;;0.60;;
13012;SDS011;22580;57.670;12.006;2023-03-14T05:05:07;1.13;;;0.60;;
13012;SDS011;22580;57.670;12.006;2023-03-14T05:07:40;1.20;;;0.50;;
13012;SDS011;22580;57.670;12.006;2023-03-14T05:10:19;1.80;;;0.80;;
13012;SDS011;22580;57.670;12.006;2023-03-14T05:12:47;1.63;;;1.00;;
13012;SDS011;22580;57.670;12.006;2023-03-14T05:15:18;2.20;;;0.80;;
13012;SDS011;22580;57.670;12.006;2023-03-14T05:17:47;3.77;;;1.20;;
13012;SDS011;22580;57.670;12.006;2023-03-14T05:20:22;1.10;;;0.60;;
13012;SDS011;22580;57.670;12.006;2023-03-14T05:23:00;1.20;;;0.60;;
13012;SDS011;22580;57.670;12.006;2023-03-14T05:25:39;1.07;;;0.70;;
13012;SDS011;22580;57.670;12.006;2023-03-14T05:28:07;2.20;;;0.70;;
13012;SDS011;22580;57.670;12.006;2023-03-14T05:30:38;3.57;;;1.43;;
13012;SDS011;22580;57.670;12.006;2023-03-14T05:33:08;2.27;;;1.00;;
13012;SDS011;22580;57.670;12.006;2023-03-14T05:35:38;2.07;;;1.00;;
13012;SDS011;22580;57.670;12.006;2023-03-14T05:38:07;5.40;;;1.37;;
13012;SDS011;22580;57.670;12.006;2023-03-14T05:40:37;2.83;;;1.00;;
13012;SDS011;22580;57.670;12.006;2023-03-14T05:43:10;1.60;;;0.90;;
13012;SDS011;22580;57.670;12.006;2023-03-14T05:45:49;1.37;;;0.70;;
13012;SDS011;22580;57.670;12.006;2023-03-14T05:48:18;1.63;;;0.80;;
13012;SDS011;22580;57.670;12.006;2023-03-14T05:50:48;2.07;;;0.77;;
13012;SDS011;22580;57.670;12.006;2023-03-14T05:53:19;2.87;;;1.30;;
13012;SDS011;22580;57.670;12.006;2023-03-14T05:55:50;2.80;;;0.97;;
13012;SDS011;22580;57.670;12.006;2023-03-14T05:58:19;3.37;;;1.20;;
13012;SDS011;22580;57.670;12.006;2023-03-14T06:00:48;2.20;;;0.80;;
13012;SDS011;22580;57.670;12.006;2023-03-14T06:03:18;1.03;;;0.70;;
13012;SDS011;22580;57.670;12.006;2023-03-14T06:05:48;1.27;;;0.67;;
13012;SDS011;22580;57.670;12.006;2023-03-14T06:08:19;0.80;;;0.50;;
13012;SDS011;22580;57.670;12.006;2023-03-14T06:10:46;1.30;;;0.40;;
13012;SDS011;22580;57.670;12.006;2023-03-14T06:13:19;1.20;;;0.43;;
13012;SDS011;22580;57.670;12.006;2023-03-14T06:15:48;1.73;;;0.60;;
13012;SDS011;22580;57.670;12.006;2023-03-14T06:18:18;0.80;;;0.40;;
13012;SDS011;22580;57.670;12.006;2023-03-14T06:20:47;0.40;;;0.40;;
13012;SDS011;22580;57.670;12.006;2023-03-14T06:23:20;1.60;;;0.63;;
13012;SDS011;22580;57.670;12.006;2023-03-14T06:25:48;1.30;;;0.60;;
13012;SDS011;22580;57.670;12.006;2023-03-14T06:28:17;0.50;;;0.50;;
13012;SDS011;22580;57.670;12.006;2023-03-14T06:30:44;0.67;;;0.40;;
13012;SDS011;22580;57.670;12.006;2023-03-14T06:33:16;0.30;;;0.30;;
13012;SDS011;22580;57.670;12.006;2023-03-14T06:35:52;0.50;;;0.43;;
13012;SDS011;22580;57.670;12.006;2023-03-14T06:38:31;3.10;;;1.10;;
13012;SDS011;22580;57.670;12.006;2023-03-14T06:41:07;2.47;;;1.30;;
13012;SDS011;22580;57.670;12.006;2023-03-14T06:43:39;1.73;;;0.70;;
13012;SDS011;22580;57.670;12.006;2023-03-14T06:46:08;1.80;;;0.80;;
13012;SDS011;22580;57.670;12.006;2023-03-14T06:48:39;1.07;;;0.63;;
13012;SDS011;22580;57.670;12.006;2023-03-14T06:51:08;1.53;;;0.87;;
13012;SDS011;22580;57.670;12.006;2023-03-14T06:53:35;1.50;;;0.73;;
13012;SDS011;22580;57.670;12.006;2023-03-14T06:56:12;1.07;;;0.80;;
13012;SDS011;22580;57.670;12.006;2023-03-14T06:58:48;1.23;;;0.93;;
13012;SDS011;22580;57.670;12.006;2023-03-14T07:01:20;2.77;;;1.13;;
13012;SDS011;22580;57.670;12.006;2023-03-14T07:03:56;2.20;;;1.13;;
13012;SDS011;22580;57.670;12.006;2023-03-14T07:06:24;2.23;;;1.00;;
13012;SDS011;22580;57.670;12.006;2023-03-14T07:09:01;2.07;;;1.53;;
13012;SDS011;22580;57.670;12.006;2023-03-14T07:11:39;2.10;;;1.30;;
13012;SDS011;22580;57.670;12.006;2023-03-14T07:14:11;2.73;;;1.20;;
13012;SDS011;22580;57.670;12.006;2023-03-14T07:16:52;2.47;;;1.13;;
13012;SDS011;22580;57.670;12.006;2023-03-14T07:19:30;4.37;;;1.57;;
13012;SDS011;22580;57.670;12.006;2023-03-14T07:21:59;2.87;;;1.20;;
13012;SDS011;22580;57.670;12.006;2023-03-14T07:24:27;1.50;;;1.23;;
13012;SDS011;22580;57.670;12.006;2023-03-14T07:26:54;2.67;;;1.00;;
13012;SDS011;22580;57.670;12.006;2023-03-14T07:29:27;1.63;;;0.90;;
13012;SDS011;22580;57.670;12.006;2023-03-14T07:31:58;2.00;;;0.80;;
13012;SDS011;22580;57.670;12.006;2023-03-14T07:34:30;1.07;;;0.53;;
13012;SDS011;22580;57.670;12.006;2023-03-14T07:37:10;1.10;;;0.73;;
13012;SDS011;22580;57.670;12.006;2023-03-14T07:39:37;1.37;;;0.60;;
13012;SDS011;22580;57.670;12.006;2023-03-14T07:42:04;0.50;;;0.50;;
13012;SDS011;22580;57.670;12.006;2023-03-14T07:44:32;2.10;;;1.00;;
13012;SDS011;22580;57.670;12.006;2023-03-14T07:47:06;1.50;;;0.90;;
13012;SDS011;22580;57.670;12.006;2023-03-14T07:49:34;1.80;;;0.77;;
13012;SDS011;22580;57.670;12.006;2023-03-14T07:52:03;1.53;;;0.90;;
13012;SDS011;22580;57.670;12.006;2023-03-14T07:54:30;1.10;;;0.53;;
13012;SDS011;22580;57.670;12.006;2023-03-14T07:56:57;1.50;;;0.73;;
13012;SDS011;22580;57.670;12.006;2023-03-14T07:59:26;1.17;;;0.50;;
13012;SDS011;22580;57.670;12.006;2023-03-14T08:01:55;0.67;;;0.60;;
13012;SDS011;22580;57.670;12.006;2023-03-14T08:04:22;0.40;;;0.40;;
13012;SDS011;22580;57.670;12.006;2023-03-14T08:06:57;0.77;;;0.40;;
13012;SDS011;22580;57.670;12.006;2023-03-14T08:09:32;1.37;;;0.60;;
13012;SDS011;22580;57.670;12.006;2023-03-14T08:12:01;0.97;;;0.70;;
13012;SDS011;22580;57.670;12.006;2023-03-14T08:14:48;2.10;;;0.90;;
13012;SDS011;22580;57.670;12.006;2023-03-14T08:17:17;2.00;;;1.00;;
13012;SDS011;22580;57.670;12.006;2023-03-14T08:19:48;2.30;;;1.00;;
13012;SDS011;22580;57.670;12.006;2023-03-14T08:22:17;2.10;;;1.03;;
13012;SDS011;22580;57.670;12.006;2023-03-14T08:24:44;1.40;;;0.90;;
13012;SDS011;22580;57.670;12.006;2023-03-14T08:27:13;2.30;;;1.23;;
13012;SDS011;22580;57.670;12.006;2023-03-14T08:29:40;3.07;;;1.00;;
13012;SDS011;22580;57.670;12.006;2023-03-14T08:32:07;1.83;;;0.87;;
13012;SDS011;22580;57.670;12.006;2023-03-14T08:34:34;1.57;;;0.87;;
13012;SDS011;22580;57.670;12.006;2023-03-14T08:37:02;2.40;;;1.60;;
13012;SDS011;22580;57.670;12.006;2023-03-14T08:39:32;3.07;;;1.20;;
13012;SDS011;22580;57.670;12.006;2023-03-14T08:42:05;3.47;;;1.10;;
13012;SDS011;22580;57.670;12.006;2023-03-14T08:44:41;1.33;;;0.80;;
13012;SDS011;22580;57.670;12.006;2023-03-14T08:47:08;4.07;;;1.67;;
13012;SDS011;22580;57.670;12.006;2023-03-14T08:49:40;3.73;;;1.30;;
13012;SDS011;22580;57.670;12.006;2023-03-14T08:52:09;2.13;;;0.80;;
13012;SDS011;22580;57.670;12.006;2023-03-14T08:54:40;1.07;;;0.90;;
13012;SDS011;22580;57.670;12.006;2023-03-14T08:57:09;2.60;;;1.10;;
13012;SDS011;22580;57.670;12.006;2023-03-14T08:59:35;4.30;;;1.20;;
13012;SDS011;22580;57.670;12.006;2023-03-14T09:02:03;1.13;;;0.60;;
13012;SDS011;22580;57.670;12.006;2023-03-14T09:04:38;2.03;;;0.83;;
13012;SDS011;22580;57.670;12.006;2023-03-14T09:07:05;1.77;;;0.80;;
13012;SDS011;22580;57.670;12.006;2023-03-14T09:09:40;4.57;;;1.13;;
13012;SDS011;22580;57.670;12.006;2023-03-14T09:12:07;1.63;;;0.80;;
13012;SDS011;22580;57.670;12.006;2023-03-14T09:14:36;1.90;;;1.00;;
13012;SDS011;22580;57.670;12.006;2023-03-14T09:17:08;2.70;;;0.90;;
13012;SDS011;22580;57.670;12.006;2023-03-14T09:19:35;4.00;;;1.23;;
13012;SDS011;22580;57.670;12.006;2023-03-14T09:22:02;5.50;;;1.40;;
13012;SDS011;22580;57.670;12.006;2023-03-14T09:24:41;3.57;;;0.90;;
13012;SDS011;22580;57.670;12.006;2023-03-14T09:27:08;1.87;;;0.80;;
13012;SDS011;22580;57.670;12.006;2023-03-14T09:29:35;2.00;;;0.97;;
13012;SDS011;22580;57.670;12.006;2023-03-14T09:32:33;2.57;;;0.90;;
13012;SDS011;22580;57.670;12.006;2023-03-14T09:35:18;3.37;;;1.20;;
13012;SDS011;22580;57.670;12.006;2023-03-14T09:37:46;3.67;;;1.03;;
13012;SDS011;22580;57.670;12.006;2023-03-14T09:40:19;4.17;;;1.00;;
13012;SDS011;22580;57.670;12.006;2023-03-14T09:42:48;2.73;;;0.80;;
13012;SDS011;22580;57.670;12.006;2023-03-14T09:45:20;3.00;;;1.20;;
13012;SDS011;22580;57.670;12.006;2023-03-14T09:47:54;3.10;;;1.00;;
13012;SDS011;22580;57.670;12.006;2023-03-14T09:50:26;2.47;;;1.00;;
13012;SDS011;22580;57.670;12.006;2023-03-14T09:53:02;3.93;;;0.97;;
13012;SDS011;22580;57.670;12.006;2023-03-14T09:55:39;2.80;;;1.00;;
13012;SDS011;22580;57.670;12.006;2023-03-14T09:58:09;1.13;;;0.97;;
13012;SDS011;22580;57.670;12.006;2023-03-14T10:00:38;2.10;;;0.97;;
13012;SDS011;22580;57.670;12.006;2023-03-14T10:06:02;1.93;;;0.70;;
13012;SDS011;22580;57.670;12.006;2023-03-14T10:08:38;1.37;;;0.47;;
13012;SDS011;22580;57.670;12.006;2023-03-14T10:11:18;2.07;;;0.90;;
13012;SDS011;22580;57.670;12.006;2023-03-14T10:13:49;2.53;;;1.00;;
13012;SDS011;22580;57.670;12.006;2023-03-14T10:16:29;0.93;;;0.80;;
13012;SDS011;22580;57.670;12.006;2023-03-14T10:19:01;3.33;;;0.90;;
13012;SDS011;22580;57.670;12.006;2023-03-14T10:21:32;2.07;;;0.97;;
13012;SDS011;22580;57.670;12.006;2023-03-14T10:24:09;2.63;;;1.03;;
13012;SDS011;22580;57.670;12.006;2023-03-14T10:26:49;3.43;;;1.20;;
13012;SDS011;22580;57.670;12.006;2023-03-14T10:29:23;2.37;;;0.90;;
13012;SDS011;22580;57.670;12.006;2023-03-14T10:32:00;2.37;;;0.90;;
13012;SDS011;22580;57.670;12.006;2023-03-14T10:34:32;2.00;;;0.87;;
13012;SDS011;22580;57.670;12.006;2023-03-14T10:37:12;1.60;;;0.80;;
13012;SDS011;22580;57.670;12.006;2023-03-14T10:39:48;2.30;;;0.83;;
13012;SDS011;22580;57.670;12.006;2023-03-14T10:42:21;0.80;;;0.50;;
13012;SDS011;22580;57.670;12.006;2023-03-14T10:44:55;0.80;;;0.70;;
13012;SDS011;22580;57.670;12.006;2023-03-14T10:47:28;2.23;;;0.87;;
13012;SDS011;22580;57.670;12.006;2023-03-14T10:50:08;1.83;;;0.83;;
13012;SDS011;22580;57.670;12.006;2023-03-14T10:52:59;0.73;;;0.60;;
13012;SDS011;22580;57.670;12.006;2023-03-14T10:55:38;1.20;;;0.63;;
13012;SDS011;22580;57.670;12.006;2023-03-14T10:58:19;2.23;;;0.80;;
13012;SDS011;22580;57.670;12.006;2023-03-14T11:00:49;1.60;;;0.60;;
13012;SDS011;22580;57.670;12.006;2023-03-14T11:03:24;2.47;;;0.70;;
13012;SDS011;22580;57.670;12.006;2023-03-14T11:06:02;1.67;;;0.77;;
13012;SDS011;22580;57.670;12.006;2023-03-14T11:08:40;1.87;;;0.70;;
13012;SDS011;22580;57.670;12.006;2023-03-14T11:11:18;2.23;;;0.60;;
13012;SDS011;22580;57.670;12.006;2023-03-14T11:13:53;1.40;;;0.90;;
13012;SDS011;22580;57.670;12.006;2023-03-14T11:16:30;2.13;;;0.87;;
13012;SDS011;22580;57.670;12.006;2023-03-14T11:19:10;1.57;;;0.73;;
13012;SDS011;22580;57.670;12.006;2023-03-14T11:22:01;2.00;;;0.97;;
13012;SDS011;22580;57.670;12.006;2023-03-14T11:24:52;2.23;;;0.87;;
13012;SDS011;22580;57.670;12.006;2023-03-14T11:27:52;1.30;;;0.50;;
13012;SDS011;22580;57.670;12.006;2023-03-14T11:30:59;2.77;;;0.97;;
13012;SDS011;22580;57.670;12.006;2023-03-14T11:36:40;1.50;;;0.70;;
13012;SDS011;22580;57.670;12.006;2023-03-14T11:39:23;2.33;;;1.00;;
13012;SDS011;22580;57.670;12.006;2023-03-14T11:42:09;1.67;;;0.80;;
13012;SDS011;22580;57.670;12.006;2023-03-14T11:44:49;2.20;;;0.57;;
13012;SDS011;22580;57.670;12.006;2023-03-14T11:47:21;2.40;;;0.70;;
13012;SDS011;22580;57.670;12.006;2023-03-14T11:50:01;1.20;;;0.50;;
13012;SDS011;22580;57.670;12.006;2023-03-14T11:52:41;1.30;;;0.50;;
13012;SDS011;22580;57.670;12.006;2023-03-14T11:55:27;1.90;;;0.60;;
13012;SDS011;22580;57.670;12.006;2023-03-14T11:58:00;3.37;;;0.70;;
13012;SDS011;22580;57.670;12.006;2023-03-14T12:00:41;2.33;;;0.77;;
13012;SDS011;22580;57.670;12.006;2023-03-14T12:06:13;1.23;;;0.63;;
13012;SDS011;22580;57.670;12.006;2023-03-14T12:09:20;1.70;;;0.50;;
13012;SDS011;22580;57.670;12.006;2023-03-14T12:11:59;1.70;;;0.60;;
13012;SDS011;22580;57.670;12.006;2023-03-14T12:14:43;1.47;;;0.80;;
13012;SDS011;22580;57.670;12.006;2023-03-14T12:20:43;1.33;;;0.50;;
13012;SDS011;22580;57.670;12.006;2023-03-14T12:23:33;0.90;;;0.60;;
13012;SDS011;22580;57.670;12.006;2023-03-14T12:26:13;0.53;;;0.53;;
13012;SDS011;22580;57.670;12.006;2023-03-14T12:28:48;0.67;;;0.50;;
13012;SDS011;22580;57.670;12.006;2023-03-14T12:31:36;1.20;;;0.53;;
13012;SDS011;22580;57.670;12.006;2023-03-14T12:40:04;0.97;;;0.73;;
13012;SDS011;22580;57.670;12.006;2023-03-14T12:43:00;0.93;;;0.50;;
13012;SDS011;22580;57.670;12.006;2023-03-14T12:45:39;1.40;;;0.53;;
13012;SDS011;22580;57.670;12.006;2023-03-14T12:48:09;2.10;;;0.60;;
13012;SDS011;22580;57.670;12.006;2023-03-14T12:50:53;0.57;;;0.57;;
13012;SDS011;22580;57.670;12.006;2023-03-14T12:53:42;0.80;;;0.70;;
13012;SDS011;22580;57.670;12.006;2023-03-14T13:02:09;1.53;;;0.60;;
13012;SDS011;22580;57.670;12.006;2023-03-14T13:04:52;0.40;;;0.40;;
13012;SDS011;22580;57.670;12.006;2023-03-14T13:07:31;0.33;;;0.30;;
13012;SDS011;22580;57.670;12.006;2023-03-14T13:13:01;1.20;;;0.50;;
13012;SDS011;22580;57.670;12.006;2023-03-14T13:15:40;0.30;;;0.30;;
13012;SDS011;22580;57.670;12.006;2023-03-14T13:18:09;0.40;;;0.40;;
13012;SDS011;22580;57.670;12.006;2023-03-14T13:20:41;1.70;;;0.70;;
13012;SDS011;22580;57.670;12.006;2023-03-14T13:23:22;0.83;;;0.60;;
13012;SDS011;22580;57.670;12.006;2023-03-14T13:28:48;0.77;;;0.50;;
13012;SDS011;22580;57.670;12.006;2023-03-14T13:31:20;0.50;;;0.37;;
13012;SDS011;22580;57.670;12.006;2023-03-14T13:33:58;1.07;;;0.60;;
13012;SDS011;22580;57.670;12.006;2023-03-14T13:36:26;0.60;;;0.60;;
13012;SDS011;22580;57.670;12.006;2023-03-14T13:38:58;0.80;;;0.50;;
13012;SDS011;22580;57.670;12.006;2023-03-14T13:41:31;0.90;;;0.27;;
13012;SDS011;22580;57.670;12.006;2023-03-14T13:44:01;0.83;;;0.40;;
13012;SDS011;22580;57.670;12.006;2023-03-14T13:46:40;0.30;;;0.20;;
13012;SDS011;22580;57.670;12.006;2023-03-14T13:49:11;0.40;;;0.30;;
13012;SDS011;22580;57.670;12.006;2023-03-14T13:51:48;1.33;;;0.40;;
13012;SDS011;22580;57.670;12.006;2023-03-14T13:54:20;0.30;;;0.30;;
13012;SDS011;22580;57.670;12.006;2023-03-14T13:56:49;0.43;;;0.40;;
13012;SDS011;22580;57.670;12.006;2023-03-14T13:59:30;1.20;;;0.53;;
13012;SDS011;22580;57.670;12.006;2023-03-14T14:02:00;0.50;;;0.40;;
13012;SDS011;22580;57.670;12.006;2023-03-14T14:04:41;0.80;;;0.60;;
13012;SDS011;22580;57.670;12.006;2023-03-14T14:07:09;1.27;;;0.40;;
13012;SDS011;22580;57.670;12.006;2023-03-14T14:09:41;0.57;;;0.40;;
13012;SDS011;22580;57.670;12.006;2023-03-14T14:12:21;0.23;;;0.23;;
13012;SDS011;22580;57.670;12.006;2023-03-14T14:15:01;1.60;;;0.40;;
13012;SDS011;22580;57.670;12.006;2023-03-14T14:17:40;0.70;;;0.50;;
13012;SDS011;22580;57.670;12.006;2023-03-14T14:20:21;0.40;;;0.40;;
13012;SDS011;22580;57.670;12.006;2023-03-14T14:23:00;0.70;;;0.20;;
13012;SDS011;22580;57.670;12.006;2023-03-14T14:25:30;0.50;;;0.40;;
13012;SDS011;22580;57.670;12.006;2023-03-14T14:31:00;0.60;;;0.60;;
13012;SDS011;22580;57.670;12.006;2023-03-14T14:33:40;0.30;;;0.30;;
13012;SDS011;22580;57.670;12.006;2023-03-14T14:36:19;0.40;;;0.30;;
13012;SDS011;22580;57.670;12.006;2023-03-14T14:38:51;0.30;;;0.30;;
13012;SDS011;22580;57.670;12.006;2023-03-14T14:41:20;0.67;;;0.60;;
13012;SDS011;22580;57.670;12.006;2023-03-14T14:43:51;0.40;;;0.30;;
13012;SDS011;22580;57.670;12.006;2023-03-14T14:46:19;0.77;;;0.23;;
13012;SDS011;22580;57.670;12.006;2023-03-14T14:48:47;0.47;;;0.40;;
13012;SDS011;22580;57.670;12.006;2023-03-14T14:51:31;0.20;;;0.20;;
13012;SDS011;22580;57.670;12.006;2023-03-14T14:54:11;0.60;;;0.60;;
13012;SDS011;22580;57.670;12.006;2023-03-14T14:59:42;0.53;;;0.50;;
13012;SDS011;22580;57.670;12.006;2023-03-14T15:02:30;0.67;;;0.40;;
13012;SDS011;22580;57.670;12.006;2023-03-14T15:05:11;0.83;;;0.70;;
13012;SDS011;22580;57.670;12.006;2023-03-14T15:07:41;0.67;;;0.30;;
13012;SDS011;22580;57.670;12.006;2023-03-14T15:10:12;0.60;;;0.50;;
13012;SDS011;22580;57.670;12.006;2023-03-14T15:12:51;0.40;;;0.40;;
13012;SDS011;22580;57.670;12.006;2023-03-14T15:15:19;0.30;;;0.30;;
13012;SDS011;22580;57.670;12.006;2023-03-14T15:17:51;1.50;;;0.70;;
13012;SDS011;22580;57.670;12.006;2023-03-14T15:20:21;0.87;;;0.50;;
13012;SDS011;22580;57.670;12.006;2023-03-14T15:22:48;0.93;;;0.30;;
13012;SDS011;22580;57.670;12.006;2023-03-14T15:25:21;0.47;;;0.47;;
13012;SDS011;22580;57.670;12.006;2023-03-14T15:27:48;0.97;;;0.50;;
13012;SDS011;22580;57.670;12.006;2023-03-14T15:30:15;0.93;;;0.40;;
13012;SDS011;22580;57.670;12.006;2023-03-14T15:32:46;0.50;;;0.40;;
13012;SDS011;22580;57.670;12.006;2023-03-14T15:35:21;0.40;;;0.40;;
13012;SDS011;22580;57.670;12.006;2023-03-14T15:37:51;0.70;;;0.40;;
13012;SDS011;22580;57.670;12.006;2023-03-14T15:40:19;0.30;;;0.30;;
13012;SDS011;22580;57.670;12.006;2023-03-14T15:42:51;0.73;;;0.53;;
13012;SDS011;22580;57.670;12.006;2023-03-14T15:48:40;0.60;;;0.60;;